Huvudsida
METAR-TAF:

METAR-TAF

Flygplatser :

Kostanay Airport

Qostanaj, Kazakstan

latitud: 53-12-23N, longitud: 063-33-03E, höjd: 182 m

Aktuellt väderrapport

Denna rapport gjordes för 35 minuter sedan, klockan 12:30 UTC
Vind 10 kt från syd/sydost
Temperatur -5°C
Fuktighet 93%
Tryck 1014 hPa
Sikt: 8000 m
Spridda moln på en höjd av 1500 ft
Mulet på en höjd av 3400 ft

METAR: UAUU 251230Z 15005MPS 8000 SCT015 OVC034 M05/M06 Q1014 R15/190150 NOSIG RMK QFE744/0992

Tid: 19:05 (13:05 UTC)

Väderprognos

Denna rapport gjordes för 2 timmar och 5 minuter sedan, klockan 11:00 UTC
Prognos gäller från 25 kl. 12 UTC till 25 kl. 21 UTC
Vind 10 kt från sydost
Sikt: 3100 m
Brutna moln på en höjd av 1100 ft
lätt snö, fuktdis
Temporärt
från 25 kl. 12 UTC till 25 kl. 21 UTC
Sikt: 0400 m
på en höjd av 200 ft
underkyld dimma

TAF: UAUU 251100Z 2512/2521 14005MPS 3100 -SN BR BKN011 TEMPO 2512/2521 0400 FZFG VV002

Aktuella väderrapporter och prognoser från 4000 flygplatser (METAR- och TAF-rapporter).

De tillgängliga stationerna syns som gula och röda prickar på kartan.

För musen över prickarna för att se namnen på stationerna.

Klicka sedan för att få väderrapporter och prognoser.

För att ändra kartan: Klicka på de gröna knapparna med ett svart kors på för att zooma in; den gröna knappen med ett streck på för att zooma ut; eller på de gröna pilarna för angränsande kartor.


METAR-TAF: